This is the latest recevied weather packets stored in our database for station/object IT9CYW-12. If no packets are shown the sender has not sent any weather packets the latest 10 day(s).
| Time | Temp. | Humidity | Pressure | Rain* | Wind** | Luminosity | Snow |
|---|---|---|---|---|---|---|---|
| 1777564627 | 18.33° C | 77% | 978.7 hPa | - | - | 84 W/m² | - |
| 1777562827 | 18.33° C | 76% | 978.7 hPa | - | - | 183 W/m² | - |
| 1777558326 | 19.44° C | 70% | 978.7 hPa | - | - | 365 W/m² | - |
| 1777554725 | 21.11° C | 55% | 978.7 hPa | - | - | 550 W/m² | - |
| 1777550229 | 20.56° C | 62% | 978.7 hPa | - | - | 661 W/m² | - |
| 1777547528 | 20° C | 65% | 978.7 hPa | - | - | 715 W/m² | - |
| 1777546627 | 21.11° C | 61% | 978.7 hPa | - | - | 762 W/m² | - |
| 1777545727 | 20.56° C | 61% | 978.7 hPa | - | - | 267 W/m² | - |
| 1777544826 | 20.56° C | 59% | 978.7 hPa | - | - | 763 W/m² | - |
| 1777543926 | 21.11° C | 55% | 978.7 hPa | - | - | 800 W/m² | - |
| 1777543026 | 21.67° C | 48% | 978.2 hPa | - | - | 771 W/m² | - |
| 1777542126 | 22.22° C | 43% | 978.4 hPa | - | - | 738 W/m² | - |
| 1777541225 | 22.22° C | 40% | 978.5 hPa | - | - | 723 W/m² | - |
| 1777540325 | 22.22° C | 41% | 978.5 hPa | - | - | 720 W/m² | - |
| 1777539425 | 21.67° C | 43% | 978.5 hPa | - | - | 472 W/m² | - |
| 1777537624 | 21.11° C | 43% | 978.4 hPa | - | - | 269 W/m² | - |
| 1777536724 | 21.11° C | 46% | 978.4 hPa | - | - | 247 W/m² | - |
| 1777534023 | 19.44° C | 53% | 978.2 hPa | - | - | 574 W/m² | - |
| 1777533122 | 20° C | 52% | 978.5 hPa | - | - | 244 W/m² | - |
| 1777532222 | 18.89° C | 59% | 978.5 hPa | - | - | 119 W/m² | - |
| 1777531322 | 19.44° C | 56% | 978.5 hPa | - | - | 328 W/m² | - |
| 1777530422 | 18.89° C | 60% | 978.5 hPa | - | - | 115 W/m² | - |
| 1777528627 | 17.78° C | 65% | 978.5 hPa | - | - | 229 W/m² | - |
| 1777527726 | 17.22° C | 66% | 978.5 hPa | - | - | 104 W/m² | - |
| 1777526826 | 16.67° C | 66% | 978.2 hPa | - | - | 62 W/m² | - |
* Rain since midnight (hover to see other rain measurements)
** Current wind speed in m/s (hover to see current wind gust speed)